SBI1056 UWKD-UUDD
Flight info
| Callsign | SBI1056 |
|---|---|
| Flight time | N/A |
| Altitude | 36000 |
| Route | APTAR T787 URAGO |
| Aircraft | A319/M-SDE3FGHIRWY/LB1 |
Departure
| Time | 2026-04-29 13:41 |
|---|---|
| Airport | Kazan International Airport (UWKD) |
Arrival
| Time | N/A |
|---|---|
| Airport | Domodedovo International Airport (UUDD) |
| Time | Latitude | Longitude | Altitude | Speed | Heading |
|---|---|---|---|---|---|
| 2026-04-29 13:19 | 55.60699 | 49.30022 | 405 ft | 0 kts | 33° |
| 2026-04-29 13:32 | 55.60685 | 49.30006 | 408 ft | 4 kts | 34° |
| 2026-04-29 13:33 | 55.60663 | 49.29979 | 408 ft | 4 kts | 37° |
| 2026-04-29 13:33 | 55.60648 | 49.29957 | 404 ft | 2 kts | 54° |
| 2026-04-29 13:33 | 55.60642 | 49.29940 | 404 ft | 2 kts | 90° |
| 2026-04-29 13:33 | 55.60644 | 49.29920 | 406 ft | 2 kts | 117° |
| 2026-04-29 13:34 | 55.60649 | 49.29903 | 406 ft | 2 kts | 123° |
| 2026-04-29 13:34 | 55.60654 | 49.29890 | 403 ft | 0 kts | 123° |
| 2026-04-29 13:35 | 55.60653 | 49.29893 | 403 ft | 1 kts | 123° |
| 2026-04-29 13:35 | 55.60641 | 49.29924 | 405 ft | 5 kts | 123° |
| 2026-04-29 13:36 | 55.60618 | 49.29986 | 407 ft | 7 kts | 124° |
| 2026-04-29 13:36 | 55.60583 | 49.30073 | 407 ft | 10 kts | 125° |
| 2026-04-29 13:36 | 55.60522 | 49.30080 | 405 ft | 11 kts | 211° |
| 2026-04-29 13:36 | 55.60470 | 49.30018 | 407 ft | 9 kts | 214° |
| 2026-04-29 13:37 | 55.60416 | 49.29954 | 407 ft | 10 kts | 214° |
| 2026-04-29 13:37 | 55.60354 | 49.29893 | 407 ft | 11 kts | 201° |
| 2026-04-29 13:37 | 55.60279 | 49.29883 | 407 ft | 11 kts | 171° |
| 2026-04-29 13:37 | 55.60203 | 49.29934 | 407 ft | 12 kts | 155° |
| 2026-04-29 13:38 | 55.60125 | 49.30000 | 407 ft | 13 kts | 153° |
| 2026-04-29 13:38 | 55.60044 | 49.30070 | 407 ft | 13 kts | 154° |
| 2026-04-29 13:38 | 55.59961 | 49.30122 | 407 ft | 10 kts | 175° |
| 2026-04-29 13:38 | 55.59911 | 49.30107 | 407 ft | 6 kts | 202° |
| 2026-04-29 13:39 | 55.59873 | 49.30064 | 407 ft | 7 kts | 216° |
| 2026-04-29 13:39 | 55.59833 | 49.30006 | 407 ft | 8 kts | 231° |
| 2026-04-29 13:39 | 55.59832 | 49.29920 | 408 ft | 7 kts | 297° |
| 2026-04-29 13:39 | 55.59855 | 49.29861 | 404 ft | 0 kts | 304° |
| 2026-04-29 13:40 | 55.59859 | 49.29852 | 406 ft | 2 kts | 303° |
| 2026-04-29 13:40 | 55.59934 | 49.29654 | 406 ft | 55 kts | 304° |
| 2026-04-29 13:40 | 55.60295 | 49.28724 | 408 ft | 125 kts | 304° |
| 2026-04-29 13:40 | 55.60887 | 49.27215 | 571 ft | 161 kts | 309° |
| 2026-04-29 13:41 | 55.61524 | 49.25582 | 1189 ft | 162 kts | 302° |
| 2026-04-29 13:41 | 55.61811 | 49.23630 | 1669 ft | 173 kts | 266° |
| 2026-04-29 13:41 | 55.61483 | 49.21458 | 2079 ft | 197 kts | 257° |
| 2026-04-29 13:41 | 55.61022 | 49.18999 | 2519 ft | 225 kts | 254° |
| 2026-04-29 13:42 | 55.60386 | 49.16312 | 3101 ft | 246 kts | 250° |
| 2026-04-29 13:42 | 55.59753 | 49.13707 | 3940 ft | 254 kts | 251° |
| 2026-04-29 13:42 | 55.59104 | 49.10795 | 4866 ft | 263 kts | 254° |
| 2026-04-29 13:42 | 55.58575 | 49.07682 | 6015 ft | 265 kts | 260° |
| 2026-04-29 13:43 | 55.58284 | 49.04484 | 7247 ft | 263 kts | 268° |
| 2026-04-29 13:43 | 55.58272 | 49.01235 | 8352 ft | 268 kts | 275° |
| 2026-04-29 13:43 | 55.58517 | 48.97908 | 9313 ft | 279 kts | 282° |
| 2026-04-29 13:43 | 55.59021 | 48.94505 | 10189 ft | 295 kts | 290° |
| 2026-04-29 13:44 | 55.59228 | 48.93544 | 10410 ft | 300 kts | 295° |
| 2026-04-29 13:44 | 55.59268 | 48.93392 | 10456 ft | 299 kts | 295° |
| 2026-04-29 13:44 | 55.60286 | 48.90985 | 10719 ft | 246 kts | 308° |
| 2026-04-29 13:45 | 55.60412 | 48.90746 | 10669 ft | 245 kts | 308° |
| 2026-04-29 13:45 | 55.61500 | 48.88772 | 10761 ft | 210 kts | 309° |
| 2026-04-29 13:46 | 55.62453 | 48.87182 | 10673 ft | 188 kts | 312° |